createdAt,value
2023-03-07T00:02:21.568Z,8.81
2023-03-07T00:07:16.261Z,8.95
2023-03-07T00:09:43.663Z,8.85
2023-03-07T00:12:11.257Z,8.79
2023-03-07T00:14:40.107Z,8.61
2023-03-07T00:17:07.438Z,8.62
2023-03-07T00:19:34.844Z,8.47
2023-03-07T00:22:02.175Z,8.41
2023-03-07T00:24:29.594Z,8.48
2023-03-07T00:26:56.922Z,8.49
2023-03-07T00:29:24.400Z,8.56
2023-03-07T00:31:51.781Z,8.56
2023-03-07T00:34:19.366Z,8.51
2023-03-07T00:36:46.818Z,8.61
2023-03-07T00:39:14.537Z,8.60
2023-03-07T00:41:41.923Z,8.48
2023-03-07T00:44:09.414Z,8.48
2023-03-07T00:46:36.722Z,8.41
2023-03-07T00:49:04.263Z,8.28
2023-03-07T00:51:31.721Z,8.35
2023-03-07T00:53:59.132Z,8.37
2023-03-07T00:56:27.008Z,8.31
2023-03-07T00:58:54.605Z,8.22
2023-03-07T01:01:24.216Z,8.16
2023-03-07T01:03:53.842Z,8.18
2023-03-07T01:06:30.053Z,8.05
2023-03-07T01:09:07.394Z,7.92
2023-03-07T01:11:53.683Z,7.99
2023-03-07T01:14:21.262Z,8.05
2023-03-07T01:16:51.304Z,7.99
2023-03-07T01:19:19.122Z,7.97
2023-03-07T01:21:46.669Z,7.94
2023-03-07T01:24:16.133Z,7.73
2023-03-07T01:26:43.852Z,7.70
2023-03-07T01:29:11.929Z,7.61
2023-03-07T01:31:39.547Z,7.54
2023-03-07T01:34:07.227Z,7.39
2023-03-07T01:36:36.957Z,7.36
2023-03-07T01:39:14.113Z,7.34
2023-03-07T01:41:55.553Z,7.36
2023-03-07T01:44:27.006Z,7.19
2023-03-07T01:47:00.001Z,7.21
2023-03-07T01:49:54.816Z,7.40
2023-03-07T01:52:28.065Z,7.38
2023-03-07T01:55:03.288Z,7.21
2023-03-07T01:57:37.063Z,7.34
2023-03-07T02:00:10.088Z,7.40
2023-03-07T02:02:49.683Z,7.44
2023-03-07T02:05:33.075Z,7.38
2023-03-07T02:08:03.006Z,7.29
2023-03-07T02:10:33.960Z,7.40
2023-03-07T02:13:01.503Z,7.45
2023-03-07T02:15:28.896Z,7.50
2023-03-07T02:17:58.792Z,7.47
2023-03-07T02:20:26.150Z,7.61
2023-03-07T02:22:54.741Z,7.46
2023-03-07T02:25:40.850Z,7.36
2023-03-07T02:28:13.134Z,7.37
2023-03-07T02:30:53.617Z,7.29
2023-03-07T02:33:24.957Z,7.13
2023-03-07T02:36:08.463Z,7.05
2023-03-07T02:38:43.053Z,7.10
2023-03-07T02:41:13.164Z,7.17
2023-03-07T02:43:40.537Z,7.11
2023-03-07T02:46:09.390Z,7.12
2023-03-07T02:48:36.685Z,7.13
2023-03-07T02:51:04.253Z,7.13
2023-03-07T02:53:32.165Z,7.14
2023-03-07T02:55:59.521Z,7.19
2023-03-07T02:58:26.829Z,7.17
2023-03-07T03:00:54.202Z,7.02
2023-03-07T03:03:21.518Z,6.90
2023-03-07T03:05:49.072Z,6.96
2023-03-07T03:08:16.488Z,6.79
2023-03-07T03:10:43.812Z,6.71
2023-03-07T03:13:11.917Z,6.71
2023-03-07T03:15:41.347Z,6.91
2023-03-07T03:18:08.666Z,6.86
2023-03-07T03:20:42.786Z,6.88
2023-03-07T03:23:10.137Z,6.75
2023-03-07T03:25:40.143Z,6.84
2023-03-07T03:28:08.571Z,6.74
2023-03-07T03:30:36.472Z,6.65
2023-03-07T03:33:04.929Z,6.54
2023-03-07T03:35:34.998Z,6.60
2023-03-07T03:38:02.820Z,6.55
2023-03-07T03:40:31.190Z,6.59
2023-03-07T03:42:58.677Z,6.67
2023-03-07T03:45:26.507Z,6.66
2023-03-07T03:47:54.078Z,6.68
2023-03-07T03:50:23.739Z,6.71
2023-03-07T03:52:51.248Z,6.81
2023-03-07T03:55:18.603Z,6.78
2023-03-07T03:57:45.975Z,6.74
2023-03-07T04:00:15.372Z,6.92
2023-03-07T04:02:43.256Z,6.86
2023-03-07T04:05:14.340Z,6.80
2023-03-07T04:07:41.700Z,6.74
2023-03-07T04:10:09.692Z,6.80
2023-03-07T04:12:37.087Z,6.68
2023-03-07T04:15:07.553Z,6.63
2023-03-07T04:17:35.869Z,6.67
2023-03-07T04:20:04.863Z,6.63
2023-03-07T04:22:32.940Z,6.56
2023-03-07T04:25:03.116Z,6.64
2023-03-07T04:27:30.713Z,6.44
2023-03-07T04:29:58.278Z,6.28
2023-03-07T04:32:26.395Z,6.41
2023-03-07T04:34:53.761Z,6.43
2023-03-07T04:37:21.094Z,6.32
2023-03-07T04:39:48.455Z,6.32
2023-03-07T04:42:15.755Z,6.42
2023-03-07T04:44:43.098Z,6.40
2023-03-07T04:47:10.481Z,6.30
2023-03-07T04:49:38.880Z,6.39
2023-03-07T04:52:07.425Z,6.26
2023-03-07T04:54:34.915Z,6.32
2023-03-07T04:57:03.972Z,6.27
2023-03-07T04:59:31.512Z,6.20
2023-03-07T05:01:58.852Z,6.23
2023-03-07T05:04:26.269Z,6.20
2023-03-07T05:06:53.821Z,6.19
2023-03-07T05:09:21.231Z,6.08
2023-03-07T05:11:48.599Z,5.97
2023-03-07T05:14:16.155Z,5.94
2023-03-07T05:16:43.553Z,5.91
2023-03-07T05:19:11.786Z,6.05
2023-03-07T05:21:40.878Z,6.06
2023-03-07T05:24:08.928Z,6.09
2023-03-07T05:26:39.290Z,6.15
2023-03-07T05:29:06.635Z,6.22
2023-03-07T05:31:34.066Z,6.26
2023-03-07T05:34:01.771Z,6.30
2023-03-07T05:36:29.158Z,6.34
2023-03-07T05:38:57.103Z,6.40
2023-03-07T05:41:25.077Z,6.42
2023-03-07T05:43:54.930Z,6.41
2023-03-07T05:46:23.028Z,6.14
2023-03-07T05:48:50.422Z,6.10
2023-03-07T05:51:17.740Z,6.02
2023-03-07T05:53:46.549Z,5.91
2023-03-07T05:56:14.773Z,6.02
2023-03-07T05:58:42.651Z,5.98
2023-03-07T06:01:10.424Z,5.99
2023-03-07T06:03:37.863Z,6.05
2023-03-07T06:06:05.498Z,6.17
2023-03-07T06:08:32.977Z,6.26
2023-03-07T06:11:02.049Z,6.31
2023-03-07T06:13:31.093Z,6.44
2023-03-07T06:15:58.490Z,6.39
2023-03-07T06:18:26.327Z,6.38
2023-03-07T06:21:05.320Z,6.38
2023-03-07T06:23:37.262Z,6.21
2023-03-07T06:26:10.443Z,6.28
2023-03-07T06:28:39.790Z,6.33
2023-03-07T06:31:09.719Z,6.47
2023-03-07T06:33:37.345Z,6.68
2023-03-07T06:36:10.579Z,6.81
2023-03-07T06:38:40.067Z,7.01
2023-03-07T06:41:11.084Z,6.97
2023-03-07T06:43:38.971Z,7.13
2023-03-07T06:46:07.513Z,7.18
2023-03-07T06:48:38.817Z,7.27
2023-03-07T06:51:10.154Z,8.00
2023-03-07T06:53:42.806Z,8.70
2023-03-07T06:56:10.371Z,8.62
2023-03-07T06:58:39.182Z,8.94
2023-03-07T07:01:10.005Z,9.56
2023-03-07T07:03:37.332Z,10.36
2023-03-07T07:06:04.830Z,10.40
2023-03-07T07:08:32.188Z,10.01
2023-03-07T07:10:59.770Z,10.06
2023-03-07T07:13:27.996Z,9.68
2023-03-07T07:15:55.396Z,9.42
2023-03-07T07:18:24.757Z,9.61
2023-03-07T07:20:55.585Z,9.88
2023-03-07T07:23:23.937Z,10.52
2023-03-07T07:25:54.651Z,10.80
2023-03-07T07:28:22.290Z,10.94
2023-03-07T07:30:49.712Z,11.25
2023-03-07T07:33:17.201Z,11.43
2023-03-07T07:35:50.884Z,11.21
2023-03-07T07:38:18.888Z,12.02
2023-03-07T07:40:46.238Z,12.34
2023-03-07T07:43:16.792Z,12.94
2023-03-07T07:45:55.089Z,13.34
2023-03-07T07:48:22.787Z,13.78
2023-03-07T07:50:50.120Z,14.13
2023-03-07T07:53:17.938Z,14.76
2023-03-07T07:55:46.220Z,15.00
2023-03-07T07:58:15.989Z,15.21
2023-03-07T08:00:43.530Z,16.02
2023-03-07T08:03:10.921Z,16.46
2023-03-07T08:05:38.338Z,17.15
2023-03-07T08:08:05.842Z,17.28
2023-03-07T08:10:33.276Z,17.38
2023-03-07T08:13:00.711Z,17.32
2023-03-07T08:15:30.064Z,17.00
2023-03-07T08:17:58.567Z,15.80
2023-03-07T08:20:25.890Z,15.25
2023-03-07T08:22:53.151Z,15.62
2023-03-07T08:25:23.745Z,15.84
2023-03-07T08:28:09.759Z,16.24
2023-03-07T08:30:37.667Z,15.98
2023-03-07T08:33:05.080Z,15.99
2023-03-07T08:35:32.612Z,15.87
2023-03-07T08:38:00.616Z,16.80
2023-03-07T08:40:29.957Z,16.13
2023-03-07T08:42:59.248Z,17.06
2023-03-07T08:45:26.937Z,16.89
2023-03-07T08:47:56.061Z,16.76
2023-03-07T08:50:25.970Z,16.12
2023-03-07T08:52:53.912Z,15.85
2023-03-07T08:55:21.309Z,16.07
2023-03-07T08:57:48.786Z,17.22
2023-03-07T09:00:17.830Z,17.39
2023-03-07T09:02:46.333Z,17.80
2023-03-07T09:05:13.671Z,18.01
2023-03-07T09:07:43.505Z,17.46
2023-03-07T09:10:11.965Z,18.05
2023-03-07T09:12:39.284Z,17.55
2023-03-07T09:15:07.088Z,17.89
2023-03-07T09:17:35.384Z,18.82
2023-03-07T09:20:03.451Z,18.58
2023-03-07T09:22:30.764Z,18.55
2023-03-07T09:24:58.066Z,19.05
2023-03-07T09:27:25.452Z,19.09
2023-03-07T09:29:52.792Z,19.24
2023-03-07T09:32:20.245Z,19.44
2023-03-07T09:34:47.591Z,19.13
2023-03-07T09:37:15.106Z,18.45
2023-03-07T09:39:42.397Z,18.09
2023-03-07T09:42:35.520Z,19.08
2023-03-07T09:45:31.455Z,17.57
2023-03-07T09:48:35.419Z,17.66
2023-03-07T09:51:15.156Z,19.50
2023-03-07T09:54:06.055Z,20.06
2023-03-07T09:56:40.881Z,18.45
2023-03-07T09:59:24.104Z,18.93
2023-03-07T10:02:15.680Z,19.66
2023-03-07T10:04:54.593Z,21.79
2023-03-07T10:07:28.067Z,21.14
2023-03-07T10:09:59.749Z,20.38
2023-03-07T10:12:45.199Z,20.61
2023-03-07T10:15:34.035Z,19.91
2023-03-07T10:18:35.120Z,19.86
2023-03-07T10:21:53.279Z,19.34
2023-03-07T10:24:45.436Z,19.39
2023-03-07T10:27:13.222Z,19.42
2023-03-07T10:29:49.324Z,19.31
2023-03-07T10:32:52.920Z,19.38
2023-03-07T10:35:22.720Z,19.05
2023-03-07T10:37:58.653Z,19.23
2023-03-07T10:40:42.796Z,19.29
2023-03-07T10:43:27.349Z,19.59
2023-03-07T10:46:26.259Z,19.79
2023-03-07T10:49:00.359Z,19.40
2023-03-07T10:51:53.331Z,19.25
2023-03-07T10:54:24.589Z,19.75
2023-03-07T10:57:05.645Z,19.54
2023-03-07T10:59:33.560Z,20.16
2023-03-07T11:02:02.781Z,20.46
2023-03-07T11:04:44.528Z,20.29
2023-03-07T11:07:34.469Z,19.13
2023-03-07T11:10:35.169Z,18.97
2023-03-07T11:13:19.126Z,18.64
2023-03-07T11:15:46.931Z,18.76
2023-03-07T11:18:30.290Z,18.21
2023-03-07T11:20:58.665Z,17.89
2023-03-07T11:23:30.834Z,17.55
2023-03-07T11:26:22.667Z,18.83
2023-03-07T11:29:12.150Z,18.44
2023-03-07T11:32:04.093Z,18.51
2023-03-07T11:34:51.193Z,19.04
2023-03-07T11:37:33.088Z,19.20
2023-03-07T11:40:31.679Z,19.85
2023-03-07T11:43:04.762Z,19.35
2023-03-07T11:45:53.101Z,19.80
2023-03-07T11:48:31.981Z,19.77
2023-03-07T11:50:59.876Z,19.62
2023-03-07T11:53:41.298Z,18.51
2023-03-07T11:56:33.836Z,17.38
2023-03-07T11:59:13.476Z,17.78
2023-03-07T12:01:52.649Z,16.98
2023-03-07T12:04:26.120Z,16.81
2023-03-07T12:07:12.092Z,16.74
2023-03-07T12:09:53.148Z,17.42
2023-03-07T12:12:23.373Z,18.06
2023-03-07T12:14:53.523Z,17.92
2023-03-07T12:17:47.685Z,18.04
2023-03-07T12:20:26.340Z,18.52
2023-03-07T12:23:05.786Z,18.74
2023-03-07T12:25:41.959Z,18.63
2023-03-07T12:28:21.806Z,18.32
2023-03-07T12:31:20.245Z,17.64
2023-03-07T12:33:48.078Z,17.34
2023-03-07T12:36:22.676Z,17.12
2023-03-07T12:38:56.896Z,17.22
2023-03-07T12:41:47.979Z,16.92
2023-03-07T12:44:32.939Z,17.27
2023-03-07T12:47:11.226Z,16.54
2023-03-07T12:49:55.585Z,16.54
2023-03-07T12:52:40.010Z,16.58
2023-03-07T12:55:31.475Z,16.77
2023-03-07T12:58:13.578Z,16.63
2023-03-07T13:00:47.236Z,16.49
2023-03-07T13:03:58.284Z,16.37
2023-03-07T13:06:26.627Z,15.89
2023-03-07T13:08:57.653Z,15.90
2023-03-07T13:11:27.640Z,16.40
2023-03-07T13:13:58.371Z,16.81
2023-03-07T13:16:36.123Z,16.02
2023-03-07T13:19:42.843Z,16.47
2023-03-07T13:22:16.395Z,16.30
2023-03-07T13:25:22.400Z,16.25
2023-03-07T13:27:52.028Z,16.14
2023-03-07T13:30:21.798Z,16.15
2023-03-07T13:32:52.180Z,16.59
2023-03-07T13:35:29.048Z,16.55
2023-03-07T13:38:04.486Z,16.40
2023-03-07T13:40:47.066Z,16.43
2023-03-07T13:43:25.466Z,16.63
2023-03-07T13:46:00.342Z,16.79
2023-03-07T13:48:27.997Z,16.82
2023-03-07T13:51:00.756Z,16.65
2023-03-07T13:53:28.039Z,16.49
2023-03-07T13:56:03.463Z,16.64
2023-03-07T13:58:34.733Z,16.32
2023-03-07T14:01:14.792Z,16.66
2023-03-07T14:03:53.041Z,17.07
2023-03-07T14:06:33.692Z,17.03
2023-03-07T14:09:05.191Z,16.89
2023-03-07T14:11:44.804Z,16.93
2023-03-07T14:14:38.154Z,16.64
2023-03-07T14:17:27.535Z,16.51
2023-03-07T14:20:17.604Z,16.49
2023-03-07T14:23:03.375Z,16.55
2023-03-07T14:25:36.526Z,16.43
2023-03-07T14:28:20.109Z,16.34
2023-03-07T14:30:56.841Z,16.43
2023-03-07T14:33:38.270Z,16.39
2023-03-07T14:36:25.693Z,16.14
2023-03-07T14:39:02.165Z,16.04
2023-03-07T14:41:46.015Z,16.04
2023-03-07T14:44:34.586Z,15.88
2023-03-07T14:47:26.693Z,15.80
2023-03-07T14:50:17.682Z,15.60
2023-03-07T14:52:45.765Z,15.43
2023-03-07T14:55:19.876Z,15.36
2023-03-07T14:57:52.898Z,15.61
2023-03-07T15:00:20.488Z,15.95
2023-03-07T15:02:55.461Z,15.77
2023-03-07T15:05:32.677Z,15.84
2023-03-07T15:08:00.108Z,15.65
2023-03-07T15:10:30.370Z,15.51
2023-03-07T15:12:58.398Z,15.37
2023-03-07T15:15:45.362Z,15.37
2023-03-07T15:18:21.356Z,15.45
2023-03-07T15:20:50.977Z,15.30
2023-03-07T15:23:22.488Z,15.40
2023-03-07T15:25:53.833Z,15.14
2023-03-07T15:28:29.786Z,15.23
2023-03-07T15:30:59.572Z,15.21
2023-03-07T15:33:30.746Z,15.28
2023-03-07T15:36:13.168Z,15.08
2023-03-07T15:38:47.980Z,15.09
2023-03-07T15:41:25.202Z,15.08
2023-03-07T15:44:19.652Z,14.95
2023-03-07T15:46:55.600Z,15.13
2023-03-07T15:49:27.773Z,14.98
2023-03-07T15:51:58.377Z,14.90
2023-03-07T15:54:33.390Z,14.79
2023-03-07T15:57:04.991Z,14.83
2023-03-07T15:59:37.188Z,14.82
2023-03-07T16:02:33.598Z,14.72
2023-03-07T16:05:19.317Z,14.79
2023-03-07T16:07:47.686Z,14.72
2023-03-07T16:10:15.370Z,14.61
2023-03-07T16:12:46.432Z,14.52
2023-03-07T16:15:15.952Z,14.47
2023-03-07T16:17:44.067Z,14.48
2023-03-07T16:20:16.632Z,14.46
2023-03-07T16:22:44.594Z,14.35
2023-03-07T16:25:15.787Z,14.43
2023-03-07T16:27:53.249Z,14.48
2023-03-07T16:30:26.495Z,14.53
2023-03-07T16:32:54.413Z,14.45
2023-03-07T16:35:24.496Z,14.34
2023-03-07T16:37:53.201Z,14.24
2023-03-07T16:40:21.440Z,14.24
2023-03-07T16:42:50.558Z,14.24
2023-03-07T16:45:20.131Z,14.10
2023-03-07T16:47:50.370Z,14.24
2023-03-07T16:50:20.799Z,14.09
2023-03-07T16:52:51.633Z,14.02
2023-03-07T16:55:19.576Z,14.01
2023-03-07T16:57:50.684Z,13.99
2023-03-07T17:00:21.162Z,14.08
2023-03-07T17:02:50.405Z,13.93
2023-03-07T17:05:23.485Z,13.94
2023-03-07T17:07:54.853Z,13.88
2023-03-07T17:10:23.714Z,13.69
2023-03-07T17:12:51.034Z,13.80
2023-03-07T17:15:24.384Z,13.66
2023-03-07T17:17:51.961Z,13.76
2023-03-07T17:20:25.636Z,13.79
2023-03-07T17:22:53.915Z,13.72
2023-03-07T17:25:22.547Z,13.58
2023-03-07T17:27:57.549Z,13.59
2023-03-07T17:30:28.224Z,13.48
2023-03-07T17:32:55.686Z,13.47
2023-03-07T17:35:23.609Z,13.39
2023-03-07T17:37:53.003Z,13.44
2023-03-07T17:40:21.734Z,13.39
2023-03-07T17:42:52.409Z,13.43
2023-03-07T17:45:19.964Z,13.33
2023-03-07T17:47:51.974Z,13.36
2023-03-07T17:50:23.589Z,13.36
2023-03-07T17:52:53.948Z,13.31
2023-03-07T17:55:24.397Z,13.25
2023-03-07T17:57:52.302Z,13.12
2023-03-07T18:00:22.812Z,13.13
2023-03-07T18:02:50.495Z,13.07
2023-03-07T18:05:21.412Z,13.01
2023-03-07T18:07:51.422Z,12.87
2023-03-07T18:10:19.078Z,12.77
2023-03-07T18:12:46.769Z,12.89
2023-03-07T18:15:16.554Z,12.82
2023-03-07T18:17:49.161Z,12.82
2023-03-07T18:20:21.483Z,12.85
2023-03-07T18:22:49.235Z,12.83
2023-03-07T18:25:18.025Z,12.87
2023-03-07T18:27:45.927Z,12.77
2023-03-07T18:30:14.274Z,12.81
2023-03-07T18:32:42.179Z,12.83
2023-03-07T18:35:09.812Z,12.73
2023-03-07T18:37:37.148Z,12.65
2023-03-07T18:40:05.091Z,12.61
2023-03-07T18:42:33.334Z,12.40
2023-03-07T18:45:00.665Z,12.47
2023-03-07T18:47:28.081Z,12.44
2023-03-07T18:50:00.476Z,12.52
2023-03-07T18:52:27.757Z,12.38
2023-03-07T18:54:55.128Z,12.28
2023-03-07T18:57:22.384Z,12.41
2023-03-07T18:59:51.162Z,12.51
2023-03-07T19:02:18.944Z,12.42
2023-03-07T19:04:47.795Z,12.51
2023-03-07T19:07:15.060Z,12.52
2023-03-07T19:09:44.600Z,12.41
2023-03-07T19:12:13.272Z,12.34
2023-03-07T19:14:40.724Z,12.38
2023-03-07T19:17:08.024Z,12.45
2023-03-07T19:19:36.082Z,12.22
2023-03-07T19:22:04.196Z,12.21
2023-03-07T19:24:32.526Z,12.21
2023-03-07T19:27:00.044Z,12.13
2023-03-07T19:29:27.426Z,12.00
2023-03-07T19:31:57.788Z,11.96
2023-03-07T19:34:25.285Z,11.96
2023-03-07T19:36:52.649Z,11.84
2023-03-07T19:39:20.637Z,11.93
2023-03-07T19:41:48.093Z,11.80
2023-03-07T19:44:16.098Z,11.79
2023-03-07T19:46:46.335Z,11.77
2023-03-07T19:49:14.935Z,11.60
2023-03-07T19:51:42.582Z,11.58
2023-03-07T19:54:13.196Z,11.49
2023-03-07T19:56:42.495Z,11.42
2023-03-07T19:59:11.474Z,11.38
2023-03-07T20:01:38.920Z,11.27
2023-03-07T20:04:07.763Z,11.31
2023-03-07T20:06:35.449Z,11.31
2023-03-07T20:09:03.148Z,11.28
2023-03-07T20:11:35.109Z,11.17
2023-03-07T20:14:04.804Z,11.12
2023-03-07T20:16:35.291Z,11.05
2023-03-07T20:19:05.638Z,10.99
2023-03-07T20:21:35.737Z,11.04
2023-03-07T20:24:04.651Z,10.93
2023-03-07T20:26:35.372Z,10.88
2023-03-07T20:29:05.460Z,10.88
2023-03-07T20:31:36.478Z,10.83
2023-03-07T20:34:03.891Z,10.82
2023-03-07T20:36:33.820Z,10.80
2023-03-07T20:39:05.448Z,10.71
2023-03-07T20:41:32.884Z,10.74
2023-03-07T20:44:03.635Z,10.67
2023-03-07T20:46:35.429Z,10.63
2023-03-07T20:49:03.801Z,10.62
2023-03-07T20:51:37.788Z,10.59
2023-03-07T20:54:07.980Z,10.50
2023-03-07T20:56:37.112Z,10.44
2023-03-07T20:59:05.258Z,10.47
2023-03-07T21:01:34.443Z,10.49
2023-03-07T21:04:07.073Z,10.46
2023-03-07T21:06:35.832Z,10.40
2023-03-07T21:09:08.361Z,10.33
2023-03-07T21:11:37.509Z,10.33
2023-03-07T21:14:04.931Z,10.37
2023-03-07T21:16:32.403Z,10.33
2023-03-07T21:19:01.680Z,10.28
2023-03-07T21:21:31.157Z,10.25
2023-03-07T21:23:58.611Z,10.14
2023-03-07T21:26:29.752Z,9.96
2023-03-07T21:28:58.130Z,9.91
2023-03-07T21:31:30.787Z,9.99
2023-03-07T21:34:01.459Z,10.07
2023-03-07T21:36:31.752Z,10.08
2023-03-07T21:39:00.161Z,10.15
2023-03-07T21:41:27.799Z,10.17
2023-03-07T21:43:56.177Z,10.17
2023-03-07T21:46:24.393Z,10.21
2023-03-07T21:48:52.140Z,10.17
2023-03-07T21:51:19.865Z,10.09
2023-03-07T21:53:47.291Z,10.15
2023-03-07T21:56:23.915Z,10.15
2023-03-07T21:58:52.101Z,10.24
2023-03-07T22:01:22.170Z,10.29
2023-03-07T22:03:52.308Z,10.37
2023-03-07T22:06:19.872Z,10.40
2023-03-07T22:08:47.154Z,10.33
2023-03-07T22:11:14.506Z,10.29
2023-03-07T22:13:42.153Z,10.33
2023-03-07T22:16:15.155Z,10.25
2023-03-07T22:18:42.568Z,10.35
2023-03-07T22:21:17.207Z,10.22
2023-03-07T22:23:44.775Z,10.19
2023-03-07T22:26:12.871Z,10.11
2023-03-07T22:28:41.048Z,10.19
2023-03-07T22:31:11.703Z,10.23
2023-03-07T22:33:40.581Z,10.23
2023-03-07T22:36:11.786Z,10.16
2023-03-07T22:38:39.394Z,10.11
2023-03-07T22:41:11.012Z,10.13
2023-03-07T22:43:39.212Z,10.18
2023-03-07T22:46:07.455Z,10.16
2023-03-07T22:48:35.203Z,10.11
2023-03-07T22:51:02.629Z,10.15
2023-03-07T22:53:31.235Z,10.08
2023-03-07T22:55:59.604Z,10.15
2023-03-07T22:58:30.156Z,10.23
2023-03-07T23:00:57.494Z,10.13
2023-03-07T23:03:24.968Z,10.15
2023-03-07T23:05:52.329Z,10.07
2023-03-07T23:08:20.517Z,10.20
2023-03-07T23:10:47.840Z,10.22
2023-03-07T23:13:18.197Z,10.14
2023-03-07T23:15:45.622Z,10.02
2023-03-07T23:18:13.079Z,10.01
2023-03-07T23:20:40.346Z,9.96
2023-03-07T23:23:07.699Z,9.99
2023-03-07T23:25:41.245Z,9.93
2023-03-07T23:28:10.125Z,10.01
2023-03-07T23:30:42.131Z,10.08
2023-03-07T23:33:09.339Z,10.08
2023-03-07T23:35:36.735Z,10.02
2023-03-07T23:38:04.816Z,9.99
2023-03-07T23:40:32.725Z,9.92
2023-03-07T23:43:00.081Z,9.81
2023-03-07T23:45:28.349Z,9.78
2023-03-07T23:47:55.713Z,9.73
2023-03-07T23:50:23.746Z,9.72
2023-03-07T23:52:51.056Z,9.53
2023-03-07T23:55:18.382Z,9.41
2023-03-07T23:57:46.736Z,9.27
